Aérodrome :
LOGIN :

S'inscrire | Disclaimer

   EN    FR    IT 

 










Légende :    VFR   VFR Marginal   IFR   IFR Intensif   IFR Très Intensif
Visi : 
Plafond : 
>= 8 km
>= 3000ft
5 à 8 km
1000 à 3000 ft
1500m à 5 km
500 à 1000 ft
800 à 1500m
200 à 500 ft
< 800m
< 200 ft
Symboles :   Orages  Brouillard  Fortes neiges  Fortes précipitations  Vent > 20 kt
SIGMETs :   Divers  Orages  Givrage  Turbulence  Onde Orograph.  Cendres Volcan.







- Altitude de l'aérodrome : 220 ft
- Code IATA : CWL
- Voir les cartes d'approche


EGFF - Cardiff Rhoose

DERNIER METAR :
  • 161450Z AUTO 20005KT 9999 OVC020 12/10 Q1020

METARs EXPIRÉS :
  • 161420Z AUTO 16004KT 9999 BKN021 OVC025 12/09 Q1020
  • 161350Z AUTO 18004KT 140V210 9999 BKN022 OVC030 12/09 Q1020
  • 161320Z AUTO 17004KT 9999 BKN021 OVC026 11/09 Q1020
  • 161250Z AUTO 14004KT 9999 BKN021 OVC025 11/09 Q1021
  • 161220Z AUTO 13005KT 9999 OVC020 11/09 Q1021
  • 161150Z AUTO 14003KT 9999 OVC019 11/09 Q1021

TAF TAF EGFF
Valide du 16 à 12h jusqu'au 17 à 12h UTC


161053Z 1612/1712 18008KT 9999 SCT025
TEMPO 1616/1620 8000 BKN008
BECMG 1620/1623 12010KT BKN006
TEMPO 1620/1702 4500 -DZ BR BKN003
PROB30
TEMPO 1621/1701 1200 BKN001
BECMG 1700/1703 FEW040
PROB30
TEMPO 1702/1706 8000
BECMG 1708/1711 18012KT
TEMPO 1709/1712 19015G25KT
PROB40
TEMPO 1709/1712 8000 RA BKN012
ATIS : +44 1446 729 319
Pas de NOTAMs connus pour ce terrain.



MET'MAP, la Météo Aéronautique d'un coup d'oeil ! - Copyright ORBIFLY Décembre 2007 - Disclaimer

ORBIFLY MET'MAP TEAM :

Programmation & Développement : Alexandra Zaïnal
Conception & Développement : Baudouin d'Aumeries
Co-Programmation & Développement : Marc-Olivier Méhu
Soutien technique & logistique : Manuel Goepfert

Contact : metmap@orbifly.com




SOURCES & CREDITS :

   NOAA